Terminal Aerodrome Forecast
Issued by NWS Chicago, IL

Home | Current Version | Previous Version | Text Only | Print | Product List | Glossary On
Versions: 1 2 3 4 5 6 7 8 9 10 11 12 13 14 15 16 17 18 19 20 21 22 23 24 25 26 27 28 29 30 31 32
000
FTUS43 KLOT 232200 AAB
TAFRFD
TAF AMD
KRFD 232206Z 2322/2418 03012G18KT P6SM SCT050
     FM240000 06005KT P6SM FEW060 BKN200
     FM240700 VRB03KT P6SM SKC
     FM241500 05006KT P6SM SCT250=

USA.gov is the U.S. government's official web portal to all federal, state and local government web resources and services.